createdAt,value
2022-12-23T00:01:35.989Z,87.42
2022-12-23T00:06:41.473Z,87.48
2022-12-23T00:12:06.043Z,87.65
2022-12-23T00:17:22.257Z,87.67
2022-12-23T00:22:19.722Z,87.45
2022-12-23T00:27:25.175Z,87.77
2022-12-23T00:32:30.573Z,87.65
2022-12-23T00:37:36.098Z,87.59
2022-12-23T00:42:56.959Z,87.55
2022-12-23T00:48:20.207Z,87.75
2022-12-23T00:53:25.728Z,87.74
2022-12-23T00:58:32.161Z,87.73
2022-12-23T01:03:55.315Z,87.84
2022-12-23T01:09:00.866Z,87.90
2022-12-23T01:14:06.400Z,87.85
2022-12-23T01:19:12.477Z,87.73
2022-12-23T01:24:18.366Z,87.73
2022-12-23T01:29:24.028Z,87.81
2022-12-23T01:34:36.033Z,87.79
2022-12-23T01:39:36.652Z,87.84
2022-12-23T01:45:03.391Z,87.85
2022-12-23T01:50:17.423Z,87.68
2022-12-23T01:55:26.106Z,87.77
2022-12-23T02:00:49.545Z,87.56
2022-12-23T02:05:57.391Z,87.41
2022-12-23T02:11:33.455Z,87.36
2022-12-23T02:16:41.936Z,87.30
2022-12-23T02:21:50.454Z,87.56
2022-12-23T02:27:31.335Z,87.42
2022-12-23T02:33:00.703Z,87.38
2022-12-23T02:38:22.900Z,87.38
2022-12-23T02:43:52.997Z,87.69
2022-12-23T02:49:19.631Z,87.22
2022-12-23T02:54:28.057Z,87.53
2022-12-23T02:59:36.483Z,87.64
2022-12-23T03:04:42.515Z,87.33
2022-12-23T03:09:59.833Z,87.54
2022-12-23T03:15:17.439Z,87.58
2022-12-23T03:20:40.969Z,87.61
2022-12-23T03:26:04.710Z,87.67
2022-12-23T03:31:13.294Z,87.72
2022-12-23T03:36:21.802Z,88.00
2022-12-23T03:41:30.269Z,87.91
2022-12-23T03:46:50.705Z,88.20
2022-12-23T03:51:59.194Z,88.16
2022-12-23T03:57:07.102Z,88.20
2022-12-23T04:02:24.362Z,88.24
2022-12-23T04:07:46.284Z,88.15
2022-12-23T04:12:52.418Z,88.32
2022-12-23T04:17:59.723Z,88.02
2022-12-23T04:23:05.972Z,88.10
2022-12-23T04:28:11.746Z,88.03
2022-12-23T04:33:17.359Z,87.96
2022-12-23T04:38:22.961Z,87.85
2022-12-23T04:43:28.341Z,87.73
2022-12-23T04:48:33.809Z,87.65
2022-12-23T04:53:39.390Z,87.47
2022-12-23T04:58:44.864Z,87.20
2022-12-23T05:03:50.417Z,87.34
2022-12-23T05:08:55.846Z,87.17
2022-12-23T05:14:01.313Z,86.96
2022-12-23T05:19:06.776Z,86.83
2022-12-23T05:24:12.465Z,86.61
2022-12-23T05:29:18.366Z,86.71
2022-12-23T05:34:23.893Z,86.67
2022-12-23T05:39:29.278Z,86.78
2022-12-23T05:44:34.882Z,86.55
2022-12-23T05:49:40.494Z,86.92
2022-12-23T05:54:46.087Z,86.63
2022-12-23T05:59:51.478Z,86.75
2022-12-23T06:04:57.459Z,86.67
2022-12-23T06:10:02.911Z,87.04
2022-12-23T06:15:09.767Z,86.64
2022-12-23T06:20:20.199Z,86.88
2022-12-23T06:25:22.531Z,87.11
2022-12-23T06:30:27.991Z,87.09
2022-12-23T06:35:33.639Z,87.11
2022-12-23T06:40:39.075Z,87.00
2022-12-23T06:45:49.139Z,87.08
2022-12-23T06:50:54.688Z,87.13
2022-12-23T06:56:04.209Z,87.08
2022-12-23T07:01:10.353Z,87.21
2022-12-23T07:06:16.005Z,87.12
2022-12-23T07:11:21.451Z,86.90
2022-12-23T07:16:27.031Z,86.99
2022-12-23T07:21:32.651Z,87.00
2022-12-23T07:26:38.230Z,86.79
2022-12-23T07:31:43.622Z,86.81
2022-12-23T07:36:49.307Z,86.97
2022-12-23T07:42:16.384Z,87.28
2022-12-23T07:47:02.032Z,87.01
2022-12-23T07:52:07.737Z,86.94
2022-12-23T07:57:13.189Z,87.17
2022-12-23T08:02:18.901Z,87.13
2022-12-23T08:07:24.624Z,87.09
2022-12-23T08:12:30.071Z,87.00
2022-12-23T08:17:35.551Z,86.88
2022-12-23T08:22:41.047Z,86.77
2022-12-23T08:27:46.529Z,87.60
2022-12-23T08:32:51.948Z,86.96
2022-12-23T08:37:57.473Z,86.77
2022-12-23T08:43:03.985Z,86.57
2022-12-23T08:48:09.675Z,88.40
2022-12-23T08:53:15.697Z,87.81
2022-12-23T08:58:21.113Z,88.65
2022-12-23T09:03:26.781Z,88.76
2022-12-23T09:08:32.321Z,88.19
2022-12-23T09:13:38.375Z,86.39
2022-12-23T09:18:44.032Z,86.16
2022-12-23T09:23:50.048Z,84.43
2022-12-23T09:28:56.141Z,83.70
2022-12-23T09:34:01.570Z,84.42
2022-12-23T09:39:07.102Z,84.53
2022-12-23T09:44:24.184Z,84.67
2022-12-23T09:49:30.093Z,83.60
2022-12-23T09:54:41.195Z,83.60
2022-12-23T10:00:01.187Z,83.13
2022-12-23T10:05:41.765Z,82.88
2022-12-23T10:10:56.196Z,82.82
2022-12-23T10:16:04.686Z,82.36
2022-12-23T10:21:19.564Z,80.72
2022-12-23T10:26:39.619Z,82.90
2022-12-23T10:32:19.883Z,83.95
2022-12-23T10:37:28.418Z,82.58
2022-12-23T10:42:42.169Z,81.41
2022-12-23T10:47:59.401Z,82.27
2022-12-23T10:53:08.068Z,80.35
2022-12-23T10:58:18.607Z,79.34
2022-12-23T11:03:38.850Z,79.66
2022-12-23T11:08:45.337Z,80.00
2022-12-23T11:13:51.243Z,80.39
2022-12-23T11:19:02.575Z,80.36
2022-12-23T11:24:22.477Z,80.75
2022-12-23T11:29:37.186Z,81.13
2022-12-23T11:34:45.674Z,81.22
2022-12-23T11:39:51.195Z,81.68
2022-12-23T11:45:00.177Z,81.46
2022-12-23T11:50:26.973Z,82.04
2022-12-23T11:55:33.927Z,82.89
2022-12-23T12:00:49.323Z,82.84
2022-12-23T12:05:55.404Z,83.28
2022-12-23T12:11:16.704Z,83.72
2022-12-23T12:16:30.755Z,83.91
2022-12-23T12:21:38.803Z,84.40
2022-12-23T12:26:47.116Z,84.23
2022-12-23T12:31:58.327Z,84.05
2022-12-23T12:37:30.290Z,84.11
2022-12-23T12:42:43.502Z,84.50
2022-12-23T12:48:18.625Z,85.10
2022-12-23T12:53:23.644Z,85.30
2022-12-23T12:58:29.348Z,85.06
2022-12-23T13:04:06.680Z,85.41
2022-12-23T13:09:15.114Z,85.13
2022-12-23T13:14:30.089Z,84.89
2022-12-23T13:19:53.844Z,85.15
2022-12-23T13:25:19.055Z,85.19
2022-12-23T13:30:26.767Z,85.38
2022-12-23T13:35:56.299Z,85.30
2022-12-23T13:41:21.917Z,85.31
2022-12-23T13:46:47.072Z,85.75
2022-12-23T13:52:08.815Z,85.58
2022-12-23T13:57:17.268Z,85.48
2022-12-23T14:02:41.320Z,85.31
2022-12-23T14:07:47.273Z,85.38
2022-12-23T14:12:55.175Z,85.28
2022-12-23T14:18:22.068Z,85.62
2022-12-23T14:23:50.666Z,85.72
2022-12-23T14:29:10.937Z,85.68
2022-12-23T14:34:22.983Z,85.58
2022-12-23T14:39:34.148Z,85.27
2022-12-23T14:44:43.845Z,85.62
2022-12-23T14:49:49.486Z,85.12
2022-12-23T14:55:28.404Z,84.94
2022-12-23T15:00:04.758Z,84.93
2022-12-23T15:05:11.013Z,85.16
2022-12-23T15:10:25.724Z,84.74
2022-12-23T15:15:33.691Z,84.50
2022-12-23T15:20:39.224Z,84.40
2022-12-23T15:25:47.646Z,84.45
2022-12-23T15:30:57.116Z,84.07
2022-12-23T15:36:05.411Z,83.58
2022-12-23T15:41:18.850Z,83.68
2022-12-23T15:46:30.049Z,83.89
2022-12-23T15:52:06.495Z,83.68
2022-12-23T15:56:45.980Z,84.09
2022-12-23T16:01:52.205Z,84.20
2022-12-23T16:06:57.758Z,84.58
2022-12-23T16:12:06.178Z,84.83
2022-12-23T16:17:18.305Z,85.04
2022-12-23T16:22:36.303Z,84.86
2022-12-23T16:27:45.247Z,85.00
2022-12-23T16:32:55.079Z,84.88
2022-12-23T16:38:18.722Z,85.01
2022-12-23T16:43:26.108Z,84.98
2022-12-23T16:48:34.836Z,85.00
2022-12-23T16:53:40.792Z,85.09
2022-12-23T16:58:47.863Z,84.90
2022-12-23T17:03:54.138Z,85.10
2022-12-23T17:08:59.585Z,85.24
2022-12-23T17:14:11.801Z,84.93
2022-12-23T17:19:14.464Z,84.80
2022-12-23T17:24:27.679Z,85.03
2022-12-23T17:29:33.128Z,85.02
2022-12-23T17:34:38.597Z,84.65
2022-12-23T17:39:45.302Z,84.71
2022-12-23T17:44:50.923Z,84.56
2022-12-23T17:49:56.429Z,84.41
2022-12-23T17:55:01.963Z,84.50
2022-12-23T18:00:08.599Z,84.47
2022-12-23T18:05:24.592Z,84.65
2022-12-23T18:10:33.286Z,84.26
2022-12-23T18:15:41.208Z,83.96
2022-12-23T18:20:49.942Z,83.88
2022-12-23T18:25:56.672Z,83.56
2022-12-23T18:31:02.292Z,84.01
2022-12-23T18:36:09.643Z,83.75
2022-12-23T18:41:15.402Z,83.43
2022-12-23T18:46:21.658Z,83.32
2022-12-23T18:51:27.348Z,82.75
2022-12-23T18:56:32.826Z,82.25
2022-12-23T19:01:38.270Z,82.67
2022-12-23T19:06:43.852Z,82.23
2022-12-23T19:11:51.391Z,82.21
2022-12-23T19:16:58.501Z,82.14
2022-12-23T19:22:04.019Z,81.69
2022-12-23T19:27:09.720Z,81.59
2022-12-23T19:32:15.172Z,81.51
2022-12-23T19:37:21.103Z,81.46
2022-12-23T19:42:27.044Z,80.97
2022-12-23T19:47:33.114Z,80.60
2022-12-23T19:52:38.822Z,81.48
2022-12-23T19:57:44.358Z,81.20
2022-12-23T20:02:55.107Z,81.02
2022-12-23T20:07:56.972Z,81.46
2022-12-23T20:13:02.445Z,81.49
2022-12-23T20:18:08.019Z,81.49
2022-12-23T20:23:13.568Z,81.47
2022-12-23T20:28:20.389Z,80.87
2022-12-23T20:33:26.004Z,81.14
2022-12-23T20:38:31.601Z,81.40
2022-12-23T20:43:37.626Z,81.26
2022-12-23T20:48:43.580Z,81.13
2022-12-23T20:53:48.989Z,80.92
2022-12-23T20:58:55.148Z,81.24
2022-12-23T21:04:03.156Z,81.15
2022-12-23T21:09:11.764Z,81.28
2022-12-23T21:14:17.569Z,81.30
2022-12-23T21:19:25.607Z,81.27
2022-12-23T21:24:31.247Z,81.15
2022-12-23T21:29:36.837Z,81.42
2022-12-23T21:34:42.467Z,81.26
2022-12-23T21:39:47.934Z,81.23
2022-12-23T21:44:53.521Z,81.21
2022-12-23T21:49:59.054Z,80.85
2022-12-23T21:55:04.892Z,80.74
2022-12-23T22:00:11.424Z,81.02
2022-12-23T22:05:16.888Z,80.75
2022-12-23T22:10:22.421Z,80.89
2022-12-23T22:15:28.508Z,80.74
2022-12-23T22:20:34.290Z,80.81
2022-12-23T22:25:39.821Z,81.14
2022-12-23T22:30:45.303Z,81.08
2022-12-23T22:35:57.017Z,81.48
2022-12-23T22:41:02.707Z,81.18
2022-12-23T22:46:08.711Z,81.21
2022-12-23T22:51:20.170Z,81.20
2022-12-23T22:56:26.883Z,81.43
2022-12-23T23:01:35.553Z,81.28
2022-12-23T23:06:42.589Z,81.47
2022-12-23T23:11:48.820Z,81.80
2022-12-23T23:16:54.420Z,81.55
2022-12-23T23:22:00.010Z,81.54
2022-12-23T23:27:06.970Z,81.47
2022-12-23T23:32:12.534Z,81.31
2022-12-23T23:37:18.139Z,81.32
2022-12-23T23:42:23.612Z,80.98
2022-12-23T23:47:30.805Z,80.68
2022-12-23T23:52:36.356Z,80.43
2022-12-23T23:57:41.913Z,80.23
